Sagittarian — WCY5210 — position and weather

sailwx.info

Track history (hours):
 
Tides and Currents Weather Stations Pressure Air Temp Water Temp Dewpoint Dewpoint Depression Visibility Wind Speed Wind Dir Waves Ship Positions

Sagittarian

Owner: TAURUS MARINE, SAN FRANCISCO, CA. More information available from US FCC via Universal Licensing System and Coast Guard Vessel Documentation Center.

Last reported at 2014-Dec-20 10:07 UTC. Time now 2014-Dec-21 18:45 UTC.
Position N 37°46' W 122°23'.

; draft 3 m.

Type: Towing. MMSI: 366969510.

Date/timePositionNaut miles runAvg speedWind from/ knotsBaromVisibWave heightAir tempDewpointWater temp
2014-Dec-20 10:07N 37°46' W 122°23'2 4.3
2014-Dec-20 09:33N 37°49' W 122°24'1010.1
2014-Dec-20 08:33N 37°59' W 122°25'10 8.9
2014-Dec-20 07:23N 38°04' W 122°13'3 1.2
2014-Dec-20 04:33N 38°02' W 122°10'5 0.7
2014-Dec-19 22:06N 38°04' W 122°15'5 3.4
2014-Dec-19 20:32N 38°02' W 122°09'8 8.3
2014-Dec-19 19:33N 38°03' W 122°19'9 8.7
2014-Dec-19 18:33N 37°57' W 122°26'2 1.7
2014-Dec-19 17:33N 37°55' W 122°25'6 6.1
2014-Dec-19 16:33N 37°49' W 122°23'3 0.4
2014-Dec-19 09:19N 37°46' W 122°23'2 2.1
2014-Dec-19 08:33N 37°47' W 122°21'2 2.1
2014-Dec-19 07:34N 37°48' W 122°19'0 0.0
2014-Dec-19 06:33N 37°48' W 122°19'0 0.0
2014-Dec-19 05:33N 37°48' W 122°19'1 1.4
2014-Dec-19 04:34N 37°48' W 122°21'3 3.4
2014-Dec-19 03:33N 37°44' W 122°20'0 0.0
2014-Dec-19 02:33N 37°44' W 122°20'0 0.0
2014-Dec-19 01:33N 37°44' W 122°20'0 0.1
2014-Dec-19 00:34N 37°44' W 122°20'0 0.1
2014-Dec-18 23:34N 37°44' W 122°20'0 0.2
2014-Dec-18 22:33N 37°44' W 122°20'3 3.4
2014-Dec-18 21:33N 37°46' W 122°23'2 1.0
2014-Dec-18 19:33N 37°48' W 122°23'7 7.1
2014-Dec-18 18:33N 37°55' W 122°25'5 4.5
2014-Dec-18 17:33N 37°51' W 122°24'5 4.6
2014-Dec-18 16:34N 37°46' W 122°23'0 0.0
2014-Dec-18 10:33N 37°46' W 122°23'0 0.0
2014-Dec-18 09:33N 37°46' W 122°23'4 3.6
2014-Dec-18 08:33N 37°44' W 122°20'0 0.0
2014-Dec-18 07:33N 37°44' W 122°20'0 0.0
2014-Dec-18 06:33N 37°44' W 122°20'1 1.1
2014-Dec-18 05:33N 37°44' W 122°21'1 0.8
2014-Dec-18 04:33N 37°45' W 122°20'1 0.7
2014-Dec-18 03:33N 37°44' W 122°20'0 0.0
2014-Dec-18 02:33N 37°44' W 122°20'0 0.0
2014-Dec-18 01:33N 37°44' W 122°20'0 0.1
2014-Dec-18 00:33N 37°44' W 122°20'3 3.3
2014-Dec-17 23:33N 37°46' W 122°23'0 0.0
2014-Dec-16 18:14N 37°46' W 122°23'4 6.2
2014-Dec-16 17:33N 37°48' W 122°18'  
Track history (hours):
 
Tides and Currents Weather Stations Pressure Air Temp Water Temp Dewpoint Dewpoint Depression Visibility Wind Speed Wind Dir Waves Ship Positions

Sagittarian

Owner: TAURUS MARINE, SAN FRANCISCO, CA. More information available from US FCC via Universal Licensing System and Coast Guard Vessel Documentation Center.

Last reported at 2014-Dec-20 10:07 UTC. Time now 2014-Dec-21 18:45 UTC.
Position N 37°46' W 122°23'.

; draft 3 m.

Type: Towing. MMSI: 366969510.

Date/timePositionNaut miles runAvg speedWind from/ knotsBaromVisibWave heightAir tempDewpointWater temp
2014-Dec-20 10:07N 37°46' W 122°23'2 4.3
2014-Dec-20 09:33N 37°49' W 122°24'1010.1
2014-Dec-20 08:33N 37°59' W 122°25'10 8.9
2014-Dec-20 07:23N 38°04' W 122°13'3 1.2
2014-Dec-20 04:33N 38°02' W 122°10'5 0.7
2014-Dec-19 22:06N 38°04' W 122°15'5 3.4
2014-Dec-19 20:32N 38°02' W 122°09'8 8.3
2014-Dec-19 19:33N 38°03' W 122°19'9 8.7
2014-Dec-19 18:33N 37°57' W 122°26'2 1.7
2014-Dec-19 17:33N 37°55' W 122°25'6 6.1
2014-Dec-19 16:33N 37°49' W 122°23'3 0.4
2014-Dec-19 09:19N 37°46' W 122°23'2 2.1
2014-Dec-19 08:33N 37°47' W 122°21'2 2.1
2014-Dec-19 07:34N 37°48' W 122°19'0 0.0
2014-Dec-19 06:33N 37°48' W 122°19'0 0.0
2014-Dec-19 05:33N 37°48' W 122°19'1 1.4
2014-Dec-19 04:34N 37°48' W 122°21'3 3.4
2014-Dec-19 03:33N 37°44' W 122°20'0 0.0
2014-Dec-19 02:33N 37°44' W 122°20'0 0.0
2014-Dec-19 01:33N 37°44' W 122°20'0 0.1
2014-Dec-19 00:34N 37°44' W 122°20'0 0.1
2014-Dec-18 23:34N 37°44' W 122°20'0 0.2
2014-Dec-18 22:33N 37°44' W 122°20'3 3.4
2014-Dec-18 21:33N 37°46' W 122°23'2 1.0
2014-Dec-18 19:33N 37°48' W 122°23'7 7.1
2014-Dec-18 18:33N 37°55' W 122°25'5 4.5
2014-Dec-18 17:33N 37°51' W 122°24'5 4.6
2014-Dec-18 16:34N 37°46' W 122°23'0 0.0
2014-Dec-18 10:33N 37°46' W 122°23'0 0.0
2014-Dec-18 09:33N 37°46' W 122°23'4 3.6
2014-Dec-18 08:33N 37°44' W 122°20'0 0.0
2014-Dec-18 07:33N 37°44' W 122°20'0 0.0
2014-Dec-18 06:33N 37°44' W 122°20'1 1.1
2014-Dec-18 05:33N 37°44' W 122°21'1 0.8
2014-Dec-18 04:33N 37°45' W 122°20'1 0.7
2014-Dec-18 03:33N 37°44' W 122°20'0 0.0
2014-Dec-18 02:33N 37°44' W 122°20'0 0.0
2014-Dec-18 01:33N 37°44' W 122°20'0 0.1
2014-Dec-18 00:33N 37°44' W 122°20'3 3.3
2014-Dec-17 23:33N 37°46' W 122°23'0 0.0
2014-Dec-16 18:14N 37°46' W 122°23'4 6.2
2014-Dec-16 17:33N 37°48' W 122°18'  

Dump ship's entire track history